createdAt,value
2019-04-01T00:01:32.886Z,23.90
2019-04-01T00:04:05.424Z,24.67
2019-04-01T00:06:37.771Z,23.90
2019-04-01T00:09:10.232Z,26.33
2019-04-01T00:11:42.632Z,22.73
2019-04-01T00:14:15.078Z,25.77
2019-04-01T00:16:47.542Z,24.40
2019-04-01T00:19:19.961Z,23.93
2019-04-01T00:21:52.323Z,24.40
2019-04-01T00:24:24.740Z,22.93
2019-04-01T00:26:57.192Z,25.10
2019-04-01T00:29:29.696Z,28.33
2019-04-01T00:32:03.183Z,23.70
2019-04-01T00:34:35.561Z,23.97
2019-04-01T00:37:07.974Z,21.80
2019-04-01T00:39:40.418Z,25.30
2019-04-01T00:42:21.068Z,21.60
2019-04-01T00:44:53.484Z,20.83
2019-04-01T00:47:25.905Z,23.63
2019-04-01T00:49:58.343Z,25.77
2019-04-01T00:52:30.785Z,24.40
2019-04-01T00:55:03.227Z,22.47
2019-04-01T00:57:35.656Z,22.37
2019-04-01T01:00:08.529Z,24.20
2019-04-01T01:02:40.993Z,20.47
2019-04-01T01:05:13.463Z,21.47
2019-04-01T01:07:45.880Z,24.93
2019-04-01T01:10:18.316Z,23.80
2019-04-01T01:12:50.815Z,22.07
2019-04-01T01:15:23.249Z,24.40
2019-04-01T01:17:55.662Z,23.10
2019-04-01T01:20:28.121Z,20.90
2019-04-01T01:23:00.526Z,22.23
2019-04-01T01:25:34.060Z,21.93
2019-04-01T01:28:06.503Z,21.07
2019-04-01T01:30:38.955Z,21.80
2019-04-01T01:33:12.438Z,20.60
2019-04-01T01:35:44.880Z,19.97
2019-04-01T01:38:17.299Z,20.30
2019-04-01T01:40:49.723Z,18.20
2019-04-01T01:43:22.158Z,21.67
2019-04-01T01:45:54.603Z,21.67
2019-04-01T01:48:27.031Z,19.33
2019-04-01T01:50:59.499Z,20.20
2019-04-01T01:53:31.913Z,22.27
2019-04-01T01:56:04.470Z,20.03
2019-04-01T01:58:36.902Z,20.87
2019-04-01T02:01:09.330Z,19.67
2019-04-01T02:03:41.775Z,18.67
2019-04-01T02:06:14.212Z,20.33
2019-04-01T02:08:46.646Z,17.60
2019-04-01T02:11:19.172Z,19.00
2019-04-01T02:13:51.606Z,17.13
2019-04-01T02:16:24.014Z,19.30
2019-04-01T02:18:56.513Z,18.27
2019-04-01T02:21:28.925Z,17.00
2019-04-01T02:24:01.352Z,16.97
2019-04-01T02:26:33.793Z,16.77
2019-04-01T02:29:06.195Z,20.33
2019-04-01T02:31:38.624Z,16.43
2019-04-01T02:34:11.051Z,17.07
2019-04-01T02:36:43.475Z,15.17
2019-04-01T02:39:15.906Z,17.37
2019-04-01T02:41:48.462Z,16.23
2019-04-01T02:44:20.903Z,17.37
2019-04-01T02:46:53.508Z,18.27
2019-04-01T02:49:25.938Z,17.30
2019-04-01T02:51:58.360Z,20.20
2019-04-01T02:54:30.824Z,16.97
2019-04-01T02:57:03.277Z,16.40
2019-04-01T02:59:35.643Z,18.20
2019-04-01T03:02:08.055Z,15.00
2019-04-01T03:04:40.421Z,15.97
2019-04-01T03:07:12.838Z,15.97
2019-04-01T03:09:45.265Z,15.97
2019-04-01T03:12:17.672Z,18.20
2019-04-01T03:14:50.118Z,16.70
2019-04-01T03:17:23.609Z,16.80
2019-04-01T03:19:56.056Z,16.20
2019-04-01T03:22:28.475Z,16.77
2019-04-01T03:25:00.909Z,16.57
2019-04-01T03:27:33.388Z,20.47
2019-04-01T03:30:06.033Z,16.77
2019-04-01T03:32:44.527Z,15.70
2019-04-01T03:35:12.494Z,15.70
2019-04-01T03:37:44.887Z,15.97
2019-04-01T03:40:17.334Z,15.83
2019-04-01T03:42:49.721Z,16.63
2019-04-01T03:45:22.149Z,18.17
2019-04-01T03:47:54.557Z,16.27
2019-04-01T03:50:26.985Z,16.70
2019-04-01T03:52:59.402Z,16.47
2019-04-01T03:55:31.837Z,15.73
2019-04-01T03:58:04.292Z,17.67
2019-04-01T04:00:36.721Z,17.03
2019-04-01T04:03:09.127Z,16.40
2019-04-01T04:05:41.488Z,19.07
2019-04-01T04:08:13.940Z,15.33
2019-04-01T04:10:46.494Z,15.60
2019-04-01T04:13:18.911Z,16.57
2019-04-01T04:15:51.414Z,19.33
2019-04-01T04:18:23.815Z,19.30
2019-04-01T04:20:56.279Z,18.13
2019-04-01T04:23:28.707Z,15.33
2019-04-01T04:26:01.192Z,17.90
2019-04-01T04:28:33.686Z,16.33
2019-04-01T04:31:06.117Z,16.77
2019-04-01T04:33:38.517Z,18.60
2019-04-01T04:36:10.946Z,18.13
2019-04-01T04:38:43.353Z,17.93
2019-04-01T04:41:15.863Z,17.47
2019-04-01T04:43:48.266Z,19.27
2019-04-01T04:46:21.376Z,18.63
2019-04-01T04:48:54.098Z,18.07
2019-04-01T04:51:26.672Z,18.57
2019-04-01T04:53:59.124Z,16.87
2019-04-01T04:56:31.568Z,19.00
2019-04-01T04:59:03.976Z,18.13
2019-04-01T05:01:36.417Z,16.03
2019-04-01T05:04:08.926Z,18.00
2019-04-01T05:06:41.354Z,16.00
2019-04-01T05:09:13.888Z,16.33
2019-04-01T05:11:46.318Z,19.00
2019-04-01T05:14:18.805Z,17.33
2019-04-01T05:16:51.240Z,17.33
2019-04-01T05:19:23.668Z,18.17
2019-04-01T05:21:56.201Z,15.50
2019-04-01T05:24:28.700Z,16.00
2019-04-01T05:27:01.619Z,16.70
2019-04-01T05:29:34.199Z,17.30
2019-04-01T05:32:06.652Z,18.20
2019-04-01T05:34:39.063Z,17.90
2019-04-01T05:37:11.579Z,17.20
2019-04-01T05:39:43.993Z,17.57
2019-04-01T05:42:16.377Z,16.47
2019-04-01T05:44:48.776Z,16.33
2019-04-01T05:47:23.727Z,16.13
2019-04-01T05:49:56.137Z,16.63
2019-04-01T05:52:28.605Z,15.07
2019-04-01T05:55:01.019Z,15.33
2019-04-01T05:57:33.491Z,18.80
2019-04-01T06:00:06.005Z,16.60
2019-04-01T06:02:38.548Z,14.67
2019-04-01T06:05:11.067Z,17.23
2019-04-01T06:07:43.640Z,15.67
2019-04-01T06:10:16.059Z,15.60
2019-04-01T06:12:48.656Z,16.13
2019-04-01T06:15:21.137Z,15.93
2019-04-01T06:17:53.692Z,16.63
2019-04-01T06:20:26.097Z,15.73
2019-04-01T06:22:58.532Z,14.93
2019-04-01T06:25:30.952Z,15.97
2019-04-01T06:28:03.431Z,14.47
2019-04-01T06:30:35.904Z,14.90
2019-04-01T06:33:08.405Z,13.27
2019-04-01T06:35:40.812Z,15.37
2019-04-01T06:38:13.246Z,19.30
2019-04-01T06:40:45.764Z,16.80
2019-04-01T06:43:18.191Z,13.87
2019-04-01T06:45:50.649Z,14.37
2019-04-01T06:48:23.070Z,14.70
2019-04-01T06:50:55.503Z,16.87
2019-04-01T06:53:27.960Z,16.00
2019-04-01T06:56:00.420Z,14.87
2019-04-01T06:58:32.922Z,15.07
2019-04-01T07:01:05.364Z,15.23
2019-04-01T07:03:37.824Z,16.17
2019-04-01T07:06:11.303Z,14.83
2019-04-01T07:08:43.732Z,14.53
2019-04-01T07:11:16.163Z,15.03
2019-04-01T07:13:48.591Z,16.03
2019-04-01T07:16:21.033Z,14.47
2019-04-01T07:18:53.379Z,15.50
2019-04-01T07:21:26.283Z,15.87
2019-04-01T07:23:59.186Z,15.83
2019-04-01T07:26:32.024Z,14.97
2019-04-01T07:29:04.846Z,14.60
2019-04-01T07:31:37.880Z,14.87
2019-04-01T07:34:10.738Z,13.57
2019-04-01T07:36:43.560Z,13.07
2019-04-01T07:39:16.396Z,14.97
2019-04-01T07:41:49.219Z,13.30
2019-04-01T07:44:22.146Z,14.70
2019-04-01T07:46:55.044Z,15.87
2019-04-01T07:49:27.890Z,14.10
2019-04-01T07:52:00.833Z,14.43
2019-04-01T07:54:33.680Z,15.93
2019-04-01T07:57:06.479Z,15.47
2019-04-01T07:59:39.374Z,15.03
2019-04-01T08:02:12.210Z,14.70
2019-04-01T08:04:45.087Z,13.03
2019-04-01T08:07:18.867Z,16.03
2019-04-01T08:09:51.842Z,14.33
2019-04-01T08:12:27.775Z,15.23
2019-04-01T08:14:59.204Z,16.03
2019-04-01T08:17:34.574Z,15.07
2019-04-01T08:20:07.798Z,16.07
2019-04-01T08:22:43.465Z,14.40
2019-04-01T08:25:16.550Z,13.87
2019-04-01T08:27:49.473Z,14.93
2019-04-01T08:30:22.547Z,15.43
2019-04-01T08:32:55.464Z,15.00
2019-04-01T08:35:28.358Z,15.00
2019-04-01T08:38:01.267Z,15.33
2019-04-01T08:40:34.066Z,14.20
2019-04-01T08:43:06.932Z,13.07
2019-04-01T08:45:39.777Z,14.10
2019-04-01T08:48:12.626Z,13.77
2019-04-01T08:50:45.536Z,14.43
2019-04-01T08:53:18.404Z,15.67
2019-04-01T08:56:00.128Z,15.67
2019-04-01T08:58:26.844Z,15.17
2019-04-01T09:00:59.708Z,14.57
2019-04-01T09:03:32.606Z,15.93
2019-04-01T09:06:05.473Z,14.07
2019-04-01T09:08:38.426Z,14.63
2019-04-01T09:11:11.235Z,17.00
2019-04-01T09:13:44.145Z,16.27
2019-04-01T09:16:17.328Z,16.97
2019-04-01T09:18:50.242Z,14.90
2019-04-01T09:21:23.171Z,15.67
2019-04-01T09:23:56.010Z,13.80
2019-04-01T09:26:28.863Z,13.67
2019-04-01T09:29:01.653Z,13.47
2019-04-01T09:31:34.725Z,13.47
2019-04-01T09:34:07.603Z,14.17
2019-04-01T09:36:40.386Z,13.83
2019-04-01T09:39:13.218Z,14.23
2019-04-01T09:41:46.219Z,13.60
2019-04-01T09:44:19.053Z,13.47
2019-04-01T09:46:51.870Z,13.93
2019-04-01T09:49:24.784Z,12.97
2019-04-01T09:51:57.623Z,12.57
2019-04-01T09:54:30.443Z,23.67
2019-04-01T09:57:16.644Z,13.03
2019-04-01T09:59:37.888Z,12.90
2019-04-01T10:02:10.807Z,12.43
2019-04-01T10:04:43.637Z,13.83
2019-04-01T10:07:16.472Z,12.50
2019-04-01T10:09:49.369Z,12.93
2019-04-01T10:12:22.255Z,12.68
2019-04-01T10:14:55.173Z,12.20
2019-04-01T10:17:28.061Z,11.50
2019-04-01T10:20:01.587Z,13.20
2019-04-01T10:22:35.740Z,12.93
2019-04-01T10:25:08.764Z,12.23
2019-04-01T10:27:41.729Z,12.88
2019-04-01T10:30:14.560Z,13.32
2019-04-01T10:32:47.423Z,11.95
2019-04-01T10:35:20.405Z,12.40
2019-04-01T10:37:53.266Z,12.07
2019-04-01T10:40:26.169Z,11.65
2019-04-01T10:42:59.050Z,13.03
2019-04-01T10:45:31.963Z,12.70
2019-04-01T10:48:04.870Z,13.53
2019-04-01T10:50:37.732Z,13.68
2019-04-01T10:53:10.628Z,12.90
2019-04-01T10:55:43.657Z,14.03
2019-04-01T10:58:16.553Z,14.50
2019-04-01T11:00:49.541Z,14.58
2019-04-01T11:03:22.399Z,13.37
2019-04-01T11:05:55.310Z,13.43
2019-04-01T11:08:28.340Z,14.20
2019-04-01T11:11:01.181Z,13.13
2019-04-01T11:13:34.373Z,12.60
2019-04-01T11:16:07.225Z,13.93
2019-04-01T11:18:40.943Z,12.60
2019-04-01T11:21:14.057Z,12.57
2019-04-01T11:23:49.435Z,12.20
2019-04-01T11:26:22.323Z,11.83
2019-04-01T12:53:38.343Z,13.73
2019-04-01T12:56:11.319Z,13.27
2019-04-01T12:58:45.202Z,16.47
2019-04-01T13:01:20.845Z,15.47
2019-04-01T13:03:58.751Z,16.97
2019-04-01T13:06:44.828Z,17.43
2019-04-01T13:09:38.349Z,15.00
2019-04-01T13:12:14.552Z,13.87
2019-04-01T13:14:47.546Z,13.57
2019-04-01T13:17:21.139Z,12.70
2019-04-01T13:19:55.626Z,15.40
2019-04-01T13:22:40.917Z,15.83
2019-04-01T13:25:19.113Z,14.73
2019-04-01T13:27:57.112Z,13.30
2019-04-01T13:30:30.768Z,14.73
2019-04-01T13:33:06.519Z,15.63
2019-04-01T13:35:39.940Z,14.83
2019-04-01T13:38:16.603Z,19.57
2019-04-01T13:40:49.514Z,14.37
2019-04-01T13:43:22.386Z,14.73
2019-04-01T13:45:55.202Z,14.03
2019-04-01T13:48:28.279Z,13.83
2019-04-01T13:51:03.227Z,14.20
2019-04-01T13:53:44.237Z,13.73
2019-04-01T13:56:25.885Z,15.47
2019-04-01T13:59:04.941Z,14.10
2019-04-01T14:01:40.883Z,14.93
2019-04-01T14:04:13.730Z,14.37
2019-04-01T14:06:47.187Z,14.90
2019-04-01T14:09:20.961Z,13.97
2019-04-01T14:11:56.359Z,15.50
2019-04-01T14:14:30.956Z,14.90
2019-04-01T14:17:05.625Z,13.43
2019-04-01T14:19:42.295Z,13.13
2019-04-01T14:22:16.757Z,14.30
2019-04-01T14:24:49.760Z,13.80
2019-04-01T14:27:22.607Z,13.53
2019-04-01T14:29:55.516Z,14.87
2019-04-01T14:32:33.602Z,14.73
2019-04-01T14:35:09.620Z,14.00
2019-04-01T14:37:58.682Z,13.40
2019-04-01T14:40:39.104Z,14.00
2019-04-01T14:43:14.805Z,17.93
2019-04-01T14:45:48.400Z,13.80
2019-04-01T14:48:21.686Z,14.37
2019-04-01T14:50:58.501Z,14.07
2019-04-01T14:53:37.818Z,14.60
2019-04-01T14:56:13.895Z,16.00
2019-04-01T14:58:47.130Z,13.73
2019-04-01T15:01:30.279Z,14.90
2019-04-01T15:04:11.966Z,14.87
2019-04-01T15:06:48.432Z,15.23
2019-04-01T15:09:23.455Z,14.67
2019-04-01T15:12:01.453Z,16.13
2019-04-01T15:14:37.599Z,13.90
2019-04-01T15:17:14.215Z,14.07
2019-04-01T15:19:48.679Z,14.50
2019-04-01T15:22:22.715Z,13.60
2019-04-01T15:24:56.108Z,12.83
2019-04-01T15:27:32.666Z,14.30
2019-04-01T15:30:13.717Z,13.23
2019-04-01T15:32:45.822Z,13.57
2019-04-01T15:35:19.956Z,14.37
2019-04-01T15:37:54.873Z,14.63
2019-04-01T15:40:47.263Z,13.80
2019-04-01T15:43:25.698Z,14.13
2019-04-01T15:46:04.031Z,13.87
2019-04-01T15:48:41.441Z,13.20
2019-04-01T15:51:17.980Z,13.93
2019-04-01T15:54:09.496Z,13.57
2019-04-01T15:56:48.215Z,15.00
2019-04-01T15:59:22.695Z,15.43
2019-04-01T16:02:01.958Z,16.70
2019-04-01T16:04:37.211Z,13.37
2019-04-01T16:07:13.981Z,14.30
2019-04-01T16:09:49.808Z,14.20
2019-04-01T16:12:26.471Z,14.33
2019-04-01T16:14:59.371Z,13.20
2019-04-01T16:17:49.710Z,13.73
2019-04-01T16:20:34.450Z,13.07
2019-04-01T16:23:14.475Z,12.53
2019-04-01T16:25:53.449Z,13.80
2019-04-01T16:28:32.013Z,13.00
2019-04-01T16:31:15.296Z,13.80
2019-04-01T16:34:01.459Z,13.17
2019-04-01T16:36:37.562Z,12.43
2019-04-01T16:39:14.246Z,12.57
2019-04-01T16:41:53.483Z,13.77
2019-04-01T16:44:35.782Z,13.70
2019-04-01T16:47:44.172Z,12.50
2019-04-01T16:50:23.393Z,11.20
2019-04-01T16:53:21.831Z,11.80
2019-04-01T16:56:05.594Z,12.90
2019-04-01T16:58:45.569Z,13.67
2019-04-01T17:01:23.336Z,12.80
2019-04-01T17:03:58.326Z,12.87
2019-04-01T17:06:31.626Z,14.13
2019-04-01T17:09:11.354Z,12.90
2019-04-01T17:11:45.904Z,11.80
2019-04-01T17:14:24.434Z,11.20
2019-04-01T17:17:15.714Z,11.73
2019-04-01T17:19:48.580Z,13.40
2019-04-01T17:22:21.426Z,11.60
2019-04-01T17:24:54.295Z,10.67
2019-04-01T17:27:27.177Z,12.43
2019-04-01T17:30:00.001Z,11.07
2019-04-01T17:32:32.933Z,11.90
2019-04-01T17:35:05.909Z,11.90
2019-04-01T17:37:38.895Z,10.40
2019-04-01T17:40:11.824Z,11.07
2019-04-01T17:42:45.457Z,11.33
2019-04-01T17:45:44.864Z,10.73
2019-04-01T17:48:18.073Z,10.83
2019-04-01T17:50:50.949Z,11.53
2019-04-01T17:53:23.830Z,11.33
2019-04-01T17:55:56.838Z,11.07
2019-04-01T17:58:34.418Z,9.83
2019-04-01T18:01:07.318Z,12.07
2019-04-01T18:03:40.169Z,10.80
2019-04-01T18:06:13.418Z,11.03
2019-04-01T18:08:46.339Z,10.13
2019-04-01T18:11:19.226Z,10.60
2019-04-01T18:13:52.086Z,10.70
2019-04-01T18:16:24.889Z,23.77
2019-04-01T18:18:57.727Z,11.67
2019-04-01T18:21:31.933Z,11.67
2019-04-01T18:24:05.147Z,18.47
2019-04-01T18:26:37.939Z,11.50
2019-04-01T18:29:10.850Z,11.67
2019-04-01T18:31:43.644Z,12.63
2019-04-01T18:34:17.383Z,12.10
2019-04-01T18:36:52.078Z,12.17
2019-04-01T18:39:25.154Z,12.33
2019-04-01T18:41:58.224Z,14.10
2019-04-01T18:44:31.305Z,11.93
2019-04-01T18:47:04.229Z,11.33
2019-04-01T18:49:38.660Z,11.70
2019-04-01T18:52:11.565Z,10.43
2019-04-01T18:54:46.006Z,12.87
2019-04-01T18:57:18.884Z,14.00
2019-04-01T18:59:51.707Z,12.10
2019-04-01T19:02:24.581Z,13.03
2019-04-01T19:04:57.485Z,16.00
2019-04-01T19:07:30.281Z,12.83
2019-04-01T19:10:06.427Z,14.00
2019-04-01T19:12:39.274Z,11.60
2019-04-01T19:15:12.279Z,13.17
2019-04-01T19:17:45.066Z,11.60
2019-04-01T19:20:18.263Z,12.73
2019-04-01T19:22:51.100Z,11.77
2019-04-01T19:25:25.761Z,13.23
2019-04-01T19:27:59.513Z,13.37
2019-04-01T19:30:32.342Z,13.23
2019-04-01T19:33:06.750Z,13.10
2019-04-01T19:35:39.678Z,12.17
2019-04-01T19:38:12.575Z,12.93
2019-04-01T19:40:45.398Z,12.43
2019-04-01T19:43:18.569Z,13.73
2019-04-01T19:45:51.551Z,11.70
2019-04-01T19:48:24.352Z,12.53
2019-04-01T19:50:57.181Z,13.27
2019-04-01T19:53:30.038Z,13.40
2019-04-01T19:56:03.183Z,12.27
2019-04-01T19:58:36.353Z,13.37
2019-04-01T20:01:09.236Z,15.07
2019-04-01T20:03:42.137Z,13.83
2019-04-01T20:06:14.946Z,14.33
2019-04-01T20:08:49.693Z,12.67
2019-04-01T20:11:22.365Z,13.20
2019-04-01T20:13:55.218Z,13.07
2019-04-01T20:16:28.028Z,14.40
2019-04-01T20:19:00.858Z,14.30
2019-04-01T20:21:33.715Z,13.87
2019-04-01T20:24:06.510Z,14.57
2019-04-01T20:26:40.315Z,12.07
2019-04-01T20:29:13.124Z,13.10
2019-04-01T20:31:46.029Z,13.47
2019-04-01T20:34:20.175Z,14.07
2019-04-01T20:36:53.276Z,12.27
2019-04-01T20:39:26.129Z,14.00
2019-04-01T20:41:58.957Z,14.17
2019-04-01T20:44:31.760Z,13.77
2019-04-01T20:47:04.577Z,14.57
2019-04-01T20:49:37.405Z,13.83
2019-04-01T20:52:10.234Z,13.73
2019-04-01T20:54:43.030Z,12.20
2019-04-01T20:57:17.166Z,11.97
2019-04-01T20:59:50.324Z,12.53
2019-04-01T21:02:23.183Z,13.03
2019-04-01T21:04:56.232Z,13.27
2019-04-01T21:07:29.080Z,12.37
2019-04-01T21:10:01.941Z,12.70
2019-04-01T21:12:34.996Z,12.93
2019-04-01T21:15:07.846Z,12.47
2019-04-01T21:17:40.656Z,13.60
2019-04-01T21:20:13.686Z,13.97
2019-04-01T21:22:46.561Z,12.23
2019-04-01T21:25:19.365Z,13.33
2019-04-01T21:27:53.120Z,13.97
2019-04-01T21:30:26.390Z,12.43
2019-04-01T21:32:59.299Z,14.53
2019-04-01T21:35:32.100Z,13.43
2019-04-01T21:38:04.961Z,13.20
2019-04-01T21:40:37.755Z,15.47
2019-04-01T21:43:10.571Z,13.17
2019-04-01T21:45:44.910Z,13.43
2019-04-01T21:48:17.963Z,12.47
2019-04-01T21:50:50.797Z,13.60
2019-04-01T21:53:23.632Z,12.57
2019-04-01T21:55:56.439Z,14.27
2019-04-01T21:58:29.292Z,12.23
2019-04-01T22:01:02.216Z,14.00
2019-04-01T22:03:36.652Z,13.60
2019-04-01T22:06:09.710Z,13.37
2019-04-01T22:08:42.548Z,14.27
2019-04-01T22:11:15.339Z,15.17
2019-04-01T22:13:48.190Z,14.13
2019-04-01T22:16:20.983Z,13.60
2019-04-01T22:18:53.780Z,13.67
2019-04-01T22:21:26.589Z,13.73
2019-04-01T22:23:59.425Z,13.10
2019-04-01T22:26:32.231Z,12.80
2019-04-01T22:29:06.666Z,13.43
2019-04-01T22:31:39.473Z,13.40
2019-04-01T22:34:12.310Z,13.40
2019-04-01T22:36:48.007Z,14.90
2019-04-01T22:39:26.971Z,13.47
2019-04-01T22:41:55.324Z,14.17
2019-04-01T22:44:28.272Z,13.60
2019-04-01T22:47:01.060Z,13.57
2019-04-01T22:49:33.911Z,14.27
2019-04-01T22:52:06.913Z,14.23
2019-04-01T22:54:39.773Z,13.57
2019-04-01T22:57:12.744Z,14.47
2019-04-01T22:59:45.674Z,14.10
2019-04-01T23:02:18.544Z,13.53
2019-04-01T23:04:51.379Z,14.03
2019-04-01T23:07:24.277Z,14.63
2019-04-01T23:09:57.922Z,13.83
2019-04-01T23:12:31.010Z,15.33
2019-04-01T23:15:03.997Z,13.63
2019-04-01T23:17:38.221Z,14.30
2019-04-01T23:20:11.538Z,15.50
2019-04-01T23:22:44.330Z,13.97
2019-04-01T23:25:17.175Z,13.83
2019-04-01T23:27:49.982Z,14.30
2019-04-01T23:30:22.953Z,16.13
2019-04-01T23:32:55.767Z,14.73
2019-04-01T23:35:28.616Z,15.43
2019-04-01T23:38:01.429Z,14.67
2019-04-01T23:40:34.267Z,17.97
2019-04-01T23:43:07.076Z,15.17
2019-04-01T23:45:39.906Z,17.87
2019-04-01T23:48:13.086Z,16.83
2019-04-01T23:50:46.933Z,15.77
2019-04-01T23:53:19.805Z,15.73
2019-04-01T23:55:52.650Z,14.03
2019-04-01T23:58:25.501Z,14.80
